createdAt,value
2023-03-13T00:01:43.247Z,2.20
2023-03-13T00:06:46.030Z,2.30
2023-03-13T00:11:48.391Z,2.30
2023-03-13T00:16:50.864Z,2.40
2023-03-13T00:21:56.230Z,2.40
2023-03-13T00:27:03.278Z,2.50
2023-03-13T00:32:05.948Z,2.50
2023-03-13T00:37:08.341Z,2.50
2023-03-13T00:42:10.898Z,2.60
2023-03-13T00:47:13.205Z,2.60
2023-03-13T00:52:15.540Z,2.70
2023-03-13T00:57:17.865Z,2.70
2023-03-13T01:02:22.323Z,2.70
2023-03-13T01:07:24.732Z,2.80
2023-03-13T01:12:27.114Z,2.90
2023-03-13T01:17:30.014Z,2.90
2023-03-13T01:22:32.396Z,2.90
2023-03-13T01:27:35.328Z,3.60
2023-03-13T01:32:37.744Z,3.10
2023-03-13T01:37:40.092Z,3.10
2023-03-13T01:43:26.482Z,3.10
2023-03-13T01:48:41.836Z,3.20
2023-03-13T01:53:49.076Z,3.30
2023-03-13T01:58:53.587Z,3.30
2023-03-13T02:03:58.500Z,3.30
2023-03-13T02:09:07.900Z,3.30
2023-03-13T02:14:10.767Z,3.40
2023-03-13T02:19:33.390Z,3.40
2023-03-13T02:25:12.685Z,3.50
2023-03-13T02:30:15.727Z,3.60
2023-03-13T02:35:21.013Z,3.70
2023-03-13T02:40:35.048Z,3.70
2023-03-13T02:45:38.068Z,3.70
2023-03-13T02:50:41.085Z,3.90
2023-03-13T02:55:43.727Z,3.70
2023-03-13T03:00:47.581Z,3.70
2023-03-13T03:05:50.373Z,3.80
2023-03-13T03:10:52.891Z,3.80
2023-03-13T03:15:57.755Z,3.80
2023-03-13T03:21:00.147Z,3.90
2023-03-13T03:26:04.831Z,3.90
2023-03-13T03:31:11.320Z,4.00
2023-03-13T03:36:16.998Z,4.00
2023-03-13T03:41:21.160Z,4.10
2023-03-13T03:46:24.752Z,4.30
2023-03-13T03:51:27.722Z,4.30
2023-03-13T03:56:30.263Z,4.30
2023-03-13T04:01:35.336Z,4.50
2023-03-13T04:06:39.190Z,4.70
2023-03-13T04:11:43.263Z,4.50
2023-03-13T04:16:47.163Z,4.40
2023-03-13T04:21:50.980Z,4.40
2023-03-13T04:26:55.114Z,4.50
2023-03-13T04:31:57.587Z,4.40
2023-03-13T04:37:32.526Z,4.50
2023-03-13T04:42:35.146Z,4.50
2023-03-13T04:47:59.718Z,4.60
2023-03-13T04:53:08.097Z,4.30
2023-03-13T04:58:42.866Z,4.20
2023-03-13T05:04:12.205Z,4.30
2023-03-13T05:09:47.769Z,4.50
2023-03-13T05:15:09.338Z,4.70
2023-03-13T05:20:38.169Z,4.70
2023-03-13T05:26:06.511Z,4.70
2023-03-13T05:31:39.244Z,4.70
2023-03-13T05:37:01.409Z,4.70
2023-03-13T05:42:27.229Z,4.70
2023-03-13T05:47:38.874Z,4.70
2023-03-13T05:52:47.156Z,4.80
2023-03-13T05:58:15.353Z,4.90
2023-03-13T06:03:32.443Z,5.10
2023-03-13T06:08:35.672Z,5.20
2023-03-13T06:13:38.770Z,5.40
2023-03-13T06:19:04.749Z,5.50
2023-03-13T06:24:07.366Z,5.70
2023-03-13T06:29:11.236Z,5.80
2023-03-13T06:34:14.423Z,6.00
2023-03-13T06:39:17.160Z,6.00
2023-03-13T06:44:19.797Z,6.10
2023-03-13T06:49:22.405Z,6.20
2023-03-13T06:54:25.260Z,5.60
2023-03-13T06:59:28.149Z,6.30
2023-03-13T07:04:30.488Z,6.60
2023-03-13T07:09:33.425Z,6.70
2023-03-13T07:14:35.909Z,6.80
2023-03-13T07:19:38.807Z,7.00
2023-03-13T07:24:41.509Z,7.20
2023-03-13T07:29:43.884Z,7.10
2023-03-13T07:34:46.402Z,7.20
2023-03-13T07:39:48.814Z,7.30
2023-03-13T07:44:51.293Z,7.30
2023-03-13T07:49:54.091Z,7.40
2023-03-13T07:54:56.487Z,7.50
2023-03-13T08:00:02.399Z,7.50
2023-03-13T08:05:14.693Z,7.60
2023-03-13T08:10:17.240Z,7.70
2023-03-13T08:15:26.082Z,7.70
2023-03-13T08:20:31.432Z,8.00
2023-03-13T08:25:35.955Z,8.00
2023-03-13T08:30:38.564Z,8.20
2023-03-13T08:35:41.259Z,8.30
2023-03-13T08:40:43.695Z,8.40
2023-03-13T08:45:46.108Z,8.50
2023-03-13T08:50:48.819Z,8.50
2023-03-13T08:55:55.386Z,8.60
2023-03-13T09:01:15.295Z,8.80
2023-03-13T09:06:17.753Z,8.70
2023-03-13T09:11:21.713Z,8.90
2023-03-13T09:16:29.588Z,9.00
2023-03-13T09:21:34.661Z,9.20
2023-03-13T09:26:37.096Z,9.30
2023-03-13T09:31:41.298Z,9.50
2023-03-13T09:36:43.684Z,9.40
2023-03-13T09:42:16.672Z,9.30
2023-03-13T09:47:28.991Z,9.30
2023-03-13T09:52:41.046Z,9.20
2023-03-13T09:57:43.372Z,9.30
2023-03-13T10:03:18.306Z,9.30
2023-03-13T10:08:26.039Z,9.30
2023-03-13T10:13:41.419Z,9.30
2023-03-13T10:18:52.700Z,9.20
2023-03-13T10:24:06.119Z,9.10
2023-03-13T10:29:28.865Z,9.10
2023-03-13T10:34:45.995Z,9.10
2023-03-13T10:39:48.369Z,9.00
2023-03-13T10:44:56.635Z,9.00
2023-03-13T10:49:59.225Z,9.10
2023-03-13T10:55:07.149Z,9.20
2023-03-13T11:00:31.057Z,9.30
2023-03-13T11:05:40.137Z,9.40
2023-03-13T11:10:55.647Z,9.50
2023-03-13T11:16:20.895Z,9.50
2023-03-13T11:22:02.399Z,9.50
2023-03-13T11:27:20.868Z,9.40
2023-03-13T11:32:32.112Z,9.50
2023-03-13T11:37:36.745Z,9.20
2023-03-13T11:42:51.086Z,9.20
2023-03-13T11:48:08.573Z,9.10
2023-03-13T11:53:22.757Z,9.10
2023-03-13T11:58:46.434Z,9.10
2023-03-13T12:04:00.994Z,9.20
2023-03-13T12:09:28.092Z,9.20
2023-03-13T12:14:48.096Z,9.20
2023-03-13T12:20:20.497Z,9.20
2023-03-13T12:25:37.057Z,9.20
2023-03-13T12:30:46.211Z,9.20
2023-03-13T12:35:57.070Z,9.20
2023-03-13T12:41:18.685Z,9.40
2023-03-13T12:46:45.237Z,9.30
2023-03-13T12:52:14.497Z,9.30
2023-03-13T12:57:22.810Z,9.40
2023-03-13T13:02:29.114Z,9.50
2023-03-13T13:07:37.158Z,9.60
2023-03-13T13:12:41.999Z,9.70
2023-03-13T13:18:05.279Z,10.00
2023-03-13T13:23:27.996Z,9.90
2023-03-13T13:28:35.666Z,10.00
2023-03-13T13:33:40.642Z,10.00
2023-03-13T13:38:43.085Z,10.00
2023-03-13T13:43:48.215Z,10.10
2023-03-13T13:49:17.004Z,10.10
2023-03-13T13:54:19.347Z,10.20
2023-03-13T13:59:21.712Z,10.30
2023-03-13T14:04:45.410Z,10.40
2023-03-13T14:10:21.011Z,10.50
2023-03-13T14:15:29.795Z,10.60
2023-03-13T14:20:37.349Z,10.60
2023-03-13T14:25:46.502Z,10.60
2023-03-13T14:30:52.113Z,10.70
2023-03-13T14:35:54.759Z,10.70
2023-03-13T14:40:57.383Z,10.80
2023-03-13T14:46:00.654Z,10.90
2023-03-13T14:51:21.693Z,10.90
2023-03-13T14:56:38.814Z,11.20
2023-03-13T15:01:41.147Z,11.20
2023-03-13T15:06:43.686Z,11.50
2023-03-13T15:11:59.160Z,11.90
2023-03-13T15:17:01.913Z,12.30
2023-03-13T15:22:04.302Z,12.30
2023-03-13T15:27:18.532Z,12.40
2023-03-13T15:32:27.834Z,12.30
2023-03-13T15:37:31.347Z,12.20
2023-03-13T15:42:33.688Z,12.10
2023-03-13T15:47:36.103Z,12.20
2023-03-13T15:52:38.529Z,12.00
2023-03-13T15:57:50.480Z,11.90
2023-03-13T16:02:53.041Z,11.90
2023-03-13T16:07:55.943Z,11.90
2023-03-13T16:12:58.481Z,11.80
2023-03-13T16:18:01.014Z,11.90
2023-03-13T16:23:03.851Z,11.80
2023-03-13T16:28:12.057Z,11.70
2023-03-13T16:33:14.849Z,11.60
2023-03-13T16:38:17.164Z,11.70
2023-03-13T16:43:19.444Z,11.70
2023-03-13T16:48:23.342Z,11.60
2023-03-13T16:53:25.667Z,11.50
2023-03-13T16:58:28.019Z,11.70
2023-03-13T17:03:30.382Z,11.70
2023-03-13T17:08:32.699Z,11.50
2023-03-13T17:13:35.030Z,11.70
2023-03-13T17:18:37.411Z,11.50
2023-03-13T17:23:39.854Z,11.40
2023-03-13T17:28:43.561Z,11.20
2023-03-13T17:33:46.811Z,11.20
2023-03-13T17:38:52.060Z,11.10
2023-03-13T17:43:55.231Z,11.10
2023-03-13T17:48:57.533Z,11.00
2023-03-13T17:54:00.076Z,10.90
2023-03-13T17:59:02.601Z,10.80
2023-03-13T18:04:05.315Z,10.80
2023-03-13T18:09:13.771Z,10.80
2023-03-13T18:14:16.523Z,10.80
2023-03-13T18:19:25.026Z,10.80
2023-03-13T18:24:27.456Z,10.70
2023-03-13T18:29:30.005Z,10.70
2023-03-13T18:34:33.019Z,10.60
2023-03-13T18:39:35.382Z,10.60
2023-03-13T18:44:37.882Z,10.60
2023-03-13T18:49:40.362Z,10.50
2023-03-13T18:54:44.404Z,10.50
2023-03-13T18:59:46.976Z,10.60
2023-03-13T19:04:49.343Z,10.30
2023-03-13T19:09:51.786Z,10.20
2023-03-13T19:14:54.168Z,10.10
2023-03-13T19:19:59.217Z,10.10
2023-03-13T19:25:01.914Z,10.00
2023-03-13T19:30:04.706Z,10.00
2023-03-13T19:35:07.834Z,9.90
2023-03-13T19:40:25.558Z,9.90
2023-03-13T19:45:28.010Z,10.10
2023-03-13T19:50:31.177Z,10.20
2023-03-13T19:55:33.590Z,10.30
2023-03-13T20:00:37.269Z,10.40
2023-03-13T20:05:39.684Z,10.40
2023-03-13T20:10:42.047Z,10.60
2023-03-13T20:15:44.482Z,10.70
2023-03-13T20:20:49.013Z,10.80
2023-03-13T20:25:51.684Z,10.60
2023-03-13T20:30:54.832Z,10.70
2023-03-13T20:36:02.527Z,10.80
2023-03-13T20:41:05.686Z,11.00
2023-03-13T20:46:08.403Z,11.50
2023-03-13T20:51:10.852Z,11.10
2023-03-13T20:56:13.232Z,11.20
2023-03-13T21:01:18.362Z,11.20
2023-03-13T21:06:22.025Z,11.50
2023-03-13T21:11:24.892Z,11.20
2023-03-13T21:16:27.734Z,11.20
2023-03-13T21:21:30.479Z,11.10
2023-03-13T21:26:32.795Z,11.10
2023-03-13T21:31:36.858Z,11.40
2023-03-13T21:36:41.105Z,11.30
2023-03-13T21:41:45.593Z,11.10
2023-03-13T21:46:48.821Z,11.50
2023-03-13T21:51:51.249Z,11.40
2023-03-13T21:56:53.745Z,11.30
2023-03-13T22:01:56.175Z,11.50
2023-03-13T22:06:58.925Z,11.50
2023-03-13T22:12:01.342Z,11.40
2023-03-13T22:17:03.678Z,11.50
2023-03-13T22:22:06.205Z,11.60
2023-03-13T22:27:11.501Z,11.50
2023-03-13T22:32:14.172Z,11.40
2023-03-13T22:37:17.001Z,11.40
2023-03-13T22:42:19.888Z,11.40
2023-03-13T22:47:22.443Z,11.60
2023-03-13T22:52:30.677Z,11.30
2023-03-13T22:57:33.192Z,11.20
2023-03-13T23:02:35.598Z,11.10
2023-03-13T23:07:40.540Z,11.40
2023-03-13T23:12:43.054Z,11.20
2023-03-13T23:17:45.432Z,11.60
2023-03-13T23:22:49.735Z,11.20
2023-03-13T23:27:52.183Z,11.30
2023-03-13T23:32:54.662Z,11.10
2023-03-13T23:37:57.330Z,11.20
2023-03-13T23:55:11.427Z,11.20
